Friday, February 23, 2018, 2:53 PM EST
Back to Local

KHUL, Houlton Int'l Airport

Location: Houlton, ME, United States Lat: 46.117
Local Time: 2:53 PM EST (19:53 GMT) Lon: -67.8
Time Zone: US/Eastern Elev: 492 ft

Show me the last for .
Show Decoded

2018-02-23 13:53 METAR KHUL 231853Z AUTO 20008KT 10SM CLR M02/M14 A3048 RMK AO2 SLP334 T10221144
                 =
2018-02-23 12:53 METAR KHUL 231753Z AUTO 20008KT 150V230 10SM CLR M03/M14 A3053 RMK AO2 SLP350
                 T10331144 11033 21200 58045 =
2018-02-23 11:53 METAR KHUL 231653Z AUTO 23006KT 10SM CLR M04/M14 A3059 RMK AO2 SLP371 T10441144
                 =
2018-02-23 10:53 METAR KHUL 231553Z AUTO 21006KT 10SM CLR M06/M14 A3063 RMK AO2 SLP386 T10561144
                 =
2018-02-23 09:53 METAR KHUL 231453Z AUTO 19005KT 10SM CLR M07/M15 A3066 RMK AO2 SLP395 T10721150
                 58014 =
2018-02-23 08:53 METAR KHUL 231353Z AUTO 22004KT 10SM CLR M09/M14 A3069 RMK AO2 SLP403 T10891144
                 =
2018-02-23 07:53 METAR KHUL 231253Z AUTO 00000KT 10SM CLR M16/M17 A3070 RMK AO2 SLP408 T11561167
                 =
2018-02-23 06:53 METAR KHUL 231153Z AUTO 00000KT 10SM CLR M20/M22 A3070 RMK AO2 SLP410 T12001222
                 11161 21206 52007 =
2018-02-23 05:53 METAR KHUL 231053Z AUTO 00000KT 10SM CLR M20/M22 A3069 RMK AO2 SLP405 T12001222
                 =
2018-02-23 04:53 METAR KHUL 230953Z AUTO 00000KT 10SM CLR M19/M21 A3070 RMK AO2 SLP408 T11941211
                 =
2018-02-23 03:53 METAR KHUL 230853Z AUTO 00000KT 10SM CLR M18/M19 A3068 RMK AO2 SLP402 T11781194
                 58002 =
2018-02-23 02:53 METAR KHUL 230753Z AUTO 00000KT 10SM CLR M17/M19 A3069 RMK AO2 SLP405 T11671189
                 =
2018-02-23 01:53 METAR KHUL 230653Z AUTO 00000KT 10SM CLR M17/M19 A3070 RMK AO2 SLP409 T11721189
                 =
2018-02-23 00:53 METAR KHUL 230553Z AUTO 00000KT 10SM CLR M17/M18 A3069 RMK AO2 SLP404 I6000
                 T11671183 11072 21167 53015 =
2018-02-22 23:53 METAR KHUL 230453Z AUTO 00000KT 10SM CLR M16/M18 A3067 RMK AO2 SLP399 I1000
                 T11561178 410111156 =
2018-02-22 22:53 METAR KHUL 230353Z AUTO 00000KT 10SM CLR M15/M17 A3066 RMK AO2 SLP393 I1000
                 T11501172 =
2018-02-22 21:53 METAR KHUL 230253Z AUTO 00000KT 10SM CLR M13/M15 A3064 RMK AO2 SLP389 T11331150
                 51009 =
2018-02-22 20:53 METAR KHUL 230153Z AUTO 00000KT 10SM CLR M12/M14 A3064 RMK AO2 SLP387 T11171139
                 =
2018-02-22 19:53 METAR KHUL 230053Z AUTO 00000KT 10SM CLR M10/M13 A3064 RMK AO2 SLP386 T11001133
                 =
2018-02-22 18:53 METAR KHUL 222353Z AUTO 00000KT 10SM CLR M07/M13 A3062 RMK AO2 SLP379 T10721128
                 11028 21072 51014 =
2018-02-22 17:53 METAR KHUL 222253Z AUTO 03003KT 10SM CLR M05/M13 A3061 RMK AO2 SLP377 T10501133
                 =
2018-02-22 16:53 METAR KHUL 222153Z AUTO 01006KT 10SM CLR M04/M12 A3059 RMK AO2 SLP369 T10441122
                 =
2018-02-22 15:53 METAR KHUL 222053Z AUTO VRB04KT 10SM CLR M03/M14 A3058 RMK AO2 SLP364 T10281144
                 56006 =

Support USWX by starting your Amazon purchase here.